Terminal Aerodrome Forecast
Issued by NWS Midland/Odessa, TX

Home | Current Version | Previous Version | Text Only | Print | Product List | Glossary On
Versions: 1 2 3 4 5 6 7 8 9 10 11 12 13 14 15 16 17 18 19 20 21 22 23 24 25 26 27 28 29 30 31 32 33
000
FTUS44 KMAF 240800 AAB
TAFMAF
TAF AMD
KMAF 240814Z 2408/2506 14005KT P6SM SCT009
      TEMPO 2408/2412 5SM BR BKN012
     FM241200 23011KT P6SM SKC
     FM250100 19008KT P6SM SKC=

USA.gov is the U.S. government's official web portal to all federal, state and local government web resources and services.